createdAt,value
2023-02-19T00:00:49.270Z,8.68
2023-02-19T00:03:23.197Z,8.63
2023-02-19T00:05:38.595Z,8.62
2023-02-19T00:07:51.805Z,8.62
2023-02-19T00:10:04.883Z,8.60
2023-02-19T00:12:17.820Z,8.58
2023-02-19T00:14:30.935Z,8.58
2023-02-19T00:16:44.537Z,8.56
2023-02-19T00:18:59.639Z,8.55
2023-02-19T00:21:13.134Z,8.56
2023-02-19T00:23:26.111Z,8.56
2023-02-19T00:25:42.346Z,8.57
2023-02-19T00:27:55.564Z,8.57
2023-02-19T00:30:10.267Z,8.57
2023-02-19T00:32:23.700Z,8.56
2023-02-19T00:34:36.888Z,8.58
2023-02-19T00:36:50.788Z,8.57
2023-02-19T00:39:04.812Z,8.57
2023-02-19T00:41:22.266Z,8.59
2023-02-19T00:43:36.558Z,8.61
2023-02-19T00:45:50.561Z,8.63
2023-02-19T00:48:04.999Z,8.63
2023-02-19T00:50:18.564Z,8.64
2023-02-19T00:52:32.690Z,8.64
2023-02-19T00:54:45.921Z,8.64
2023-02-19T00:56:58.940Z,8.65
2023-02-19T00:59:13.053Z,8.66
2023-02-19T01:01:26.646Z,8.68
2023-02-19T01:03:40.415Z,8.70
2023-02-19T01:05:53.616Z,8.72
2023-02-19T01:08:07.167Z,8.73
2023-02-19T01:10:22.155Z,8.73
2023-02-19T01:12:35.348Z,8.73
2023-02-19T01:14:48.694Z,8.73
2023-02-19T01:17:02.015Z,8.73
2023-02-19T01:19:15.994Z,8.73
2023-02-19T01:21:32.257Z,8.73
2023-02-19T01:23:45.537Z,8.73
2023-02-19T01:25:58.513Z,8.71
2023-02-19T01:28:12.094Z,8.69
2023-02-19T01:30:26.039Z,8.68
2023-02-19T01:32:39.588Z,8.67
2023-02-19T01:34:52.653Z,8.65
2023-02-19T01:37:06.894Z,8.64
2023-02-19T01:39:20.484Z,8.64
2023-02-19T01:41:34.404Z,8.64
2023-02-19T01:46:34.447Z,8.56
2023-02-19T01:48:47.959Z,8.44
2023-02-19T01:51:07.232Z,8.37
2023-02-19T01:53:25.231Z,8.33
2023-02-19T01:55:39.616Z,8.31
2023-02-19T01:57:58.215Z,8.31
2023-02-19T02:00:18.000Z,8.29
2023-02-19T02:02:32.875Z,8.25
2023-02-19T02:04:48.962Z,8.24
2023-02-19T02:07:04.468Z,8.23
2023-02-19T02:09:36.080Z,8.22
2023-02-19T02:11:55.088Z,8.20
2023-02-19T02:14:09.688Z,8.19
2023-02-19T02:16:33.262Z,8.20
2023-02-19T02:18:58.680Z,8.23
2023-02-19T02:21:29.918Z,8.26
2023-02-19T02:24:10.560Z,8.27
2023-02-19T02:26:48.849Z,8.28
2023-02-19T02:29:39.969Z,8.29
2023-02-19T02:32:00.213Z,8.27
2023-02-19T02:34:19.920Z,8.27
2023-02-19T02:36:39.434Z,8.26
2023-02-19T02:38:55.644Z,8.26
2023-02-19T02:41:10.468Z,8.26
2023-02-19T02:43:25.274Z,8.26
2023-02-19T02:45:41.247Z,8.25
2023-02-19T02:48:36.199Z,8.24
2023-02-19T02:50:54.488Z,8.23
2023-02-19T02:53:28.241Z,8.21
2023-02-19T02:55:45.830Z,8.19
2023-02-19T02:58:00.929Z,8.16
2023-02-19T03:00:17.243Z,8.12
2023-02-19T03:02:35.629Z,8.10
2023-02-19T03:05:14.604Z,8.09
2023-02-19T03:07:31.519Z,8.08
2023-02-19T03:09:49.648Z,8.08
2023-02-19T03:12:23.679Z,8.08
2023-02-19T03:14:58.569Z,8.09
2023-02-19T03:17:48.433Z,8.13
2023-02-19T03:20:13.953Z,8.13
2023-02-19T03:22:33.608Z,8.12
2023-02-19T03:25:11.877Z,8.11
2023-02-19T03:27:30.428Z,8.12
2023-02-19T03:29:47.681Z,8.14
2023-02-19T03:32:06.622Z,8.15
2023-02-19T03:34:28.490Z,8.16
2023-02-19T03:36:55.285Z,8.16
2023-02-19T03:39:12.077Z,8.14
2023-02-19T03:41:35.915Z,8.12
2023-02-19T03:43:57.336Z,8.12
2023-02-19T03:46:17.915Z,8.11
2023-02-19T03:48:37.895Z,8.09
2023-02-19T03:51:00.793Z,8.07
2023-02-19T03:53:22.021Z,8.07
2023-02-19T03:55:47.005Z,8.04
2023-02-19T03:58:11.363Z,7.99
2023-02-19T04:00:30.669Z,7.98
2023-02-19T04:02:49.074Z,7.97
2023-02-19T04:05:11.326Z,7.97
2023-02-19T04:07:27.593Z,7.96
2023-02-19T04:09:45.099Z,7.97
2023-02-19T04:12:03.740Z,7.97
2023-02-19T04:14:23.343Z,7.97
2023-02-19T04:16:39.510Z,7.96
2023-02-19T04:18:57.960Z,7.96
2023-02-19T04:21:12.964Z,7.94
2023-02-19T04:23:29.969Z,7.92
2023-02-19T04:25:46.300Z,7.88
2023-02-19T04:28:00.125Z,7.85
2023-02-19T04:30:17.139Z,7.81
2023-02-19T04:32:31.328Z,7.80
2023-02-19T04:34:45.328Z,7.76
2023-02-19T04:36:59.586Z,7.73
2023-02-19T04:39:18.320Z,7.72
2023-02-19T04:41:34.687Z,7.70
2023-02-19T04:43:48.936Z,7.69
2023-02-19T04:46:15.985Z,7.69
2023-02-19T04:48:32.644Z,7.70
2023-02-19T04:50:49.711Z,7.72
2023-02-19T04:53:03.954Z,7.72
2023-02-19T04:55:17.625Z,7.72
2023-02-19T04:57:31.597Z,7.73
2023-02-19T04:59:45.913Z,7.72
2023-02-19T05:02:01.057Z,7.72
2023-02-19T05:04:15.203Z,7.72
2023-02-19T05:06:29.546Z,7.75
2023-02-19T05:08:44.594Z,7.76
2023-02-19T05:11:00.984Z,7.76
2023-02-19T05:13:14.432Z,7.77
2023-02-19T05:15:33.773Z,7.76
2023-02-19T05:17:50.495Z,7.76
2023-02-19T05:20:05.036Z,7.77
2023-02-19T05:22:23.197Z,7.77
2023-02-19T05:24:38.245Z,7.77
2023-02-19T05:26:53.720Z,7.76
2023-02-19T05:29:07.706Z,7.74
2023-02-19T05:31:22.130Z,7.72
2023-02-19T05:33:40.256Z,7.70
2023-02-19T05:35:57.954Z,7.67
2023-02-19T05:38:13.914Z,7.68
2023-02-19T05:40:27.354Z,7.67
2023-02-19T05:42:43.754Z,7.63
2023-02-19T05:44:57.393Z,7.61
2023-02-19T05:47:10.667Z,7.58
2023-02-19T05:49:24.644Z,7.56
2023-02-19T05:51:39.280Z,7.51
2023-02-19T05:53:54.226Z,7.48
2023-02-19T05:56:07.700Z,7.44
2023-02-19T05:58:23.003Z,7.40
2023-02-19T06:00:36.554Z,7.37
2023-02-19T06:02:50.793Z,7.35
2023-02-19T06:05:04.034Z,7.33
2023-02-19T06:07:17.435Z,7.32
2023-02-19T06:09:30.734Z,7.30
2023-02-19T06:11:45.444Z,7.28
2023-02-19T06:13:59.515Z,7.25
2023-02-19T06:16:14.270Z,7.23
2023-02-19T06:18:27.854Z,7.21
2023-02-19T06:20:41.613Z,7.19
2023-02-19T06:22:56.594Z,7.19
2023-02-19T06:25:14.084Z,7.18
2023-02-19T06:27:30.311Z,7.16
2023-02-19T06:29:43.898Z,7.15
2023-02-19T06:31:58.045Z,7.15
2023-02-19T06:34:12.938Z,7.14
2023-02-19T06:36:28.018Z,7.12
2023-02-19T06:38:42.093Z,7.11
2023-02-19T06:40:57.010Z,7.10
2023-02-19T06:43:10.190Z,7.06
2023-02-19T06:45:24.243Z,7.03
2023-02-19T06:47:39.874Z,7.02
2023-02-19T06:49:53.801Z,6.99
2023-02-19T06:52:08.021Z,6.98
2023-02-19T06:54:21.331Z,6.98
2023-02-19T06:56:37.452Z,6.96
2023-02-19T06:58:51.261Z,6.93
2023-02-19T07:01:04.811Z,6.91
2023-02-19T07:03:18.004Z,6.88
2023-02-19T07:05:31.131Z,6.85
2023-02-19T07:07:44.219Z,6.83
2023-02-19T07:09:57.827Z,6.78
2023-02-19T07:12:12.566Z,6.74
2023-02-19T07:14:26.046Z,6.71
2023-02-19T07:16:40.478Z,6.67
2023-02-19T07:18:54.103Z,6.64
2023-02-19T07:21:11.982Z,6.62
2023-02-19T07:23:25.385Z,6.59
2023-02-19T07:25:38.565Z,6.58
2023-02-19T07:27:51.777Z,6.55
2023-02-19T07:30:06.190Z,6.51
2023-02-19T07:32:21.339Z,6.50
2023-02-19T07:34:36.324Z,6.48
2023-02-19T07:36:50.554Z,6.44
2023-02-19T07:39:04.647Z,6.40
2023-02-19T07:41:18.047Z,6.38
2023-02-19T07:43:38.925Z,6.37
2023-02-19T07:45:52.656Z,6.36
2023-02-19T07:48:06.189Z,6.34
2023-02-19T07:50:18.529Z,6.34
2023-02-19T07:52:32.182Z,6.33
2023-02-19T07:54:46.071Z,6.33
2023-02-19T07:56:59.350Z,6.32
2023-02-19T07:59:12.924Z,6.31
2023-02-19T08:01:50.391Z,6.31
2023-02-19T08:04:04.644Z,6.30
2023-02-19T08:06:18.740Z,6.30
2023-02-19T08:08:32.441Z,6.31
2023-02-19T08:11:02.043Z,6.32
2023-02-19T08:13:26.347Z,6.33
2023-02-19T08:15:41.084Z,6.33
2023-02-19T08:17:54.206Z,6.33
2023-02-19T08:20:09.703Z,6.34
2023-02-19T08:22:22.597Z,6.34
2023-02-19T08:24:36.333Z,6.34
2023-02-19T08:26:49.669Z,6.35
2023-02-19T08:29:02.665Z,6.36
2023-02-19T08:31:17.349Z,6.37
2023-02-19T08:33:30.978Z,6.38
2023-02-19T08:35:45.108Z,6.36
2023-02-19T08:38:01.796Z,6.36
2023-02-19T08:40:16.558Z,6.35
2023-02-19T08:42:31.539Z,6.35
2023-02-19T08:44:44.818Z,6.35
2023-02-19T08:46:58.437Z,6.34
2023-02-19T08:49:11.396Z,6.34
2023-02-19T08:51:24.926Z,6.34
2023-02-19T08:53:39.690Z,6.34
2023-02-19T08:55:52.780Z,6.33
2023-02-19T08:58:06.225Z,6.35
2023-02-19T09:00:20.665Z,6.36
2023-02-19T09:02:34.113Z,6.36
2023-02-19T09:04:47.544Z,6.36
2023-02-19T09:07:01.955Z,6.36
2023-02-19T09:09:15.313Z,6.36
2023-02-19T09:11:28.219Z,6.37
2023-02-19T09:13:43.054Z,6.38
2023-02-19T09:15:55.997Z,6.40
2023-02-19T09:18:09.094Z,6.42
2023-02-19T09:20:22.646Z,6.42
2023-02-19T09:22:36.254Z,6.42
2023-02-19T09:24:49.417Z,6.43
2023-02-19T09:27:03.008Z,6.42
2023-02-19T09:29:16.628Z,6.45
2023-02-19T09:31:29.687Z,6.47
2023-02-19T09:33:45.529Z,6.47
2023-02-19T09:36:02.000Z,6.46
2023-02-19T09:38:14.959Z,6.46
2023-02-19T09:40:28.416Z,6.45
2023-02-19T09:42:43.458Z,6.46
2023-02-19T09:44:59.588Z,6.45
2023-02-19T09:47:19.130Z,6.46
2023-02-19T09:49:35.825Z,6.46
2023-02-19T09:51:51.545Z,6.47
2023-02-19T09:54:05.549Z,6.48
2023-02-19T09:56:19.656Z,6.48
2023-02-19T09:58:38.525Z,6.48
2023-02-19T10:00:54.526Z,6.49
2023-02-19T10:03:14.342Z,6.49
2023-02-19T10:05:29.534Z,6.50
2023-02-19T10:07:46.925Z,6.51
2023-02-19T10:10:04.256Z,6.53
2023-02-19T10:12:22.750Z,6.53
2023-02-19T10:14:43.843Z,6.53
2023-02-19T10:16:56.934Z,6.54
2023-02-19T10:19:13.018Z,6.55
2023-02-19T10:21:28.333Z,6.57
2023-02-19T10:23:43.045Z,6.58
2023-02-19T10:25:59.776Z,6.58
2023-02-19T10:28:18.244Z,6.57
2023-02-19T10:30:35.519Z,6.56
2023-02-19T10:33:05.339Z,6.55
2023-02-19T10:35:21.174Z,6.55
2023-02-19T10:37:34.566Z,6.56
2023-02-19T10:39:50.302Z,6.58
2023-02-19T10:42:03.766Z,6.60
2023-02-19T10:44:22.252Z,6.63
2023-02-19T10:46:39.058Z,6.66
2023-02-19T10:48:56.681Z,6.66
2023-02-19T10:51:14.433Z,6.63
2023-02-19T10:53:39.281Z,6.64
2023-02-19T10:55:52.416Z,6.65
2023-02-19T10:58:28.266Z,6.65
2023-02-19T11:00:42.035Z,6.64
2023-02-19T11:03:15.309Z,6.63
2023-02-19T11:05:29.784Z,6.63
2023-02-19T11:07:47.530Z,6.63
2023-02-19T11:10:02.025Z,6.62
2023-02-19T11:12:16.334Z,6.62
2023-02-19T11:14:31.435Z,6.60
2023-02-19T11:16:50.189Z,6.59
2023-02-19T11:19:04.441Z,6.57
2023-02-19T11:21:34.310Z,6.55
2023-02-19T11:23:51.864Z,6.53
2023-02-19T11:26:08.550Z,6.50
2023-02-19T11:28:33.434Z,6.49
2023-02-19T11:30:48.576Z,6.50
2023-02-19T11:33:16.856Z,6.52
2023-02-19T11:35:33.373Z,6.52
2023-02-19T11:38:01.118Z,6.53
2023-02-19T11:40:19.336Z,6.52
2023-02-19T11:42:44.358Z,6.51
2023-02-19T11:45:17.137Z,6.51
2023-02-19T11:47:39.848Z,6.50
2023-02-19T11:49:59.091Z,6.49
2023-02-19T11:52:28.233Z,6.49
2023-02-19T11:54:59.559Z,6.48
2023-02-19T11:57:21.419Z,6.48
2023-02-19T11:59:42.926Z,6.49
2023-02-19T12:02:18.970Z,6.50
2023-02-19T12:05:03.358Z,6.48
2023-02-19T12:07:31.015Z,6.45
2023-02-19T12:10:02.326Z,6.44
2023-02-19T12:12:33.575Z,6.43
2023-02-19T12:15:05.849Z,6.45
2023-02-19T12:17:32.024Z,6.45
2023-02-19T12:20:02.312Z,6.45
2023-02-19T12:22:33.365Z,6.43
2023-02-19T12:25:04.791Z,6.43
2023-02-19T12:27:30.321Z,6.45
2023-02-19T12:30:06.665Z,6.47
2023-02-19T12:32:49.477Z,6.47
2023-02-19T12:35:40.074Z,6.48
2023-02-19T12:38:03.435Z,6.47
2023-02-19T12:40:36.755Z,6.47
2023-02-19T12:43:05.408Z,6.46
2023-02-19T12:45:24.935Z,6.46
2023-02-19T12:47:44.566Z,6.43
2023-02-19T12:50:09.062Z,6.44
2023-02-19T12:52:26.006Z,6.45
2023-02-19T12:54:42.397Z,6.47
2023-02-19T12:57:00.190Z,6.46
2023-02-19T12:59:19.098Z,6.45
2023-02-19T13:01:35.302Z,6.44
2023-02-19T13:03:55.250Z,6.44
2023-02-19T13:06:19.518Z,6.44
2023-02-19T13:08:35.656Z,6.42
2023-02-19T13:10:53.123Z,6.43
2023-02-19T13:13:10.313Z,6.41
2023-02-19T13:15:29.102Z,6.40
2023-02-19T13:17:48.301Z,6.41
2023-02-19T13:20:07.021Z,6.41
2023-02-19T13:22:44.551Z,6.40
2023-02-19T13:24:58.959Z,6.39
2023-02-19T13:27:31.234Z,6.38
2023-02-19T13:30:10.382Z,6.37
2023-02-19T13:32:43.313Z,6.36
2023-02-19T13:35:02.838Z,6.34
2023-02-19T13:37:16.043Z,6.33
2023-02-19T13:39:31.103Z,6.31
2023-02-19T13:41:52.720Z,6.31
2023-02-19T13:44:09.397Z,6.30
2023-02-19T13:46:23.402Z,6.28
2023-02-19T13:48:38.328Z,6.28
2023-02-19T13:50:51.730Z,6.26
2023-02-19T13:53:05.589Z,6.25
2023-02-19T13:55:57.239Z,6.25
2023-02-19T13:58:38.708Z,6.24
2023-02-19T14:01:02.491Z,6.22
2023-02-19T14:03:33.112Z,6.21
2023-02-19T14:06:07.356Z,6.21
2023-02-19T14:08:54.301Z,6.21
2023-02-19T14:11:09.311Z,6.21
2023-02-19T14:14:13.170Z,6.21
2023-02-19T14:16:36.212Z,6.20
2023-02-19T14:18:51.557Z,6.17
2023-02-19T14:21:19.936Z,6.14
2023-02-19T14:23:33.776Z,6.13
2023-02-19T14:25:57.826Z,6.11
2023-02-19T14:28:17.911Z,6.10
2023-02-19T14:30:32.198Z,6.09
2023-02-19T14:32:51.043Z,6.08
2023-02-19T14:35:04.414Z,6.07
2023-02-19T14:37:24.564Z,6.06
2023-02-19T14:39:41.423Z,6.06
2023-02-19T14:41:59.628Z,6.07
2023-02-19T14:44:20.453Z,6.07
2023-02-19T14:46:36.803Z,6.07
2023-02-19T14:48:52.793Z,6.07
2023-02-19T14:51:11.331Z,6.08
2023-02-19T14:53:26.802Z,6.08
2023-02-19T14:55:43.764Z,6.08
2023-02-19T14:58:00.026Z,6.06
2023-02-19T15:00:29.805Z,6.05
2023-02-19T15:02:48.117Z,6.03
2023-02-19T15:05:02.481Z,6.02
2023-02-19T15:07:18.893Z,5.99
2023-02-19T15:09:40.352Z,5.98
2023-02-19T15:11:53.553Z,5.97
2023-02-19T15:14:08.587Z,5.97
2023-02-19T15:16:27.105Z,5.98
2023-02-19T15:18:43.253Z,5.99
2023-02-19T15:21:02.503Z,6.00
2023-02-19T15:23:22.653Z,6.01
2023-02-19T15:25:39.145Z,6.00
2023-02-19T15:27:53.087Z,6.00
2023-02-19T15:30:06.752Z,6.01
2023-02-19T15:32:27.397Z,6.02
2023-02-19T15:34:43.271Z,6.00
2023-02-19T15:37:04.599Z,5.99
2023-02-19T15:39:26.229Z,5.99
2023-02-19T15:41:41.630Z,5.98
2023-02-19T15:44:00.319Z,5.99
2023-02-19T15:46:20.689Z,6.01
2023-02-19T15:48:39.040Z,6.02
2023-02-19T15:50:56.516Z,6.03
2023-02-19T15:53:12.531Z,6.04
2023-02-19T15:55:39.921Z,6.05
2023-02-19T15:57:57.240Z,6.06
2023-02-19T16:00:18.294Z,6.08
2023-02-19T16:02:31.701Z,6.07
2023-02-19T16:04:47.053Z,6.06
2023-02-19T16:07:04.504Z,6.07
2023-02-19T16:09:32.128Z,6.09
2023-02-19T16:11:51.632Z,6.12
2023-02-19T16:14:27.040Z,6.14
2023-02-19T16:16:46.649Z,6.15
2023-02-19T16:19:00.643Z,6.17
2023-02-19T16:21:15.319Z,6.18
2023-02-19T16:23:28.862Z,6.20
2023-02-19T16:25:45.391Z,6.23
2023-02-19T16:28:01.264Z,6.25
2023-02-19T16:30:27.576Z,6.28
2023-02-19T16:32:40.921Z,6.32
2023-02-19T16:34:55.732Z,6.35
2023-02-19T16:37:22.200Z,6.40
2023-02-19T16:39:35.810Z,6.43
2023-02-19T16:42:20.861Z,6.46
2023-02-19T16:44:40.871Z,6.51
2023-02-19T16:47:11.307Z,6.56
2023-02-19T16:49:34.147Z,6.61
2023-02-19T16:51:47.688Z,6.64
2023-02-19T16:54:01.668Z,6.69
2023-02-19T16:56:24.109Z,6.75
2023-02-19T16:58:39.890Z,6.81
2023-02-19T17:00:56.419Z,6.87
2023-02-19T17:03:14.936Z,6.96
2023-02-19T17:05:29.938Z,7.06
2023-02-19T17:07:46.364Z,7.16
2023-02-19T17:10:06.858Z,7.25
2023-02-19T17:12:28.442Z,7.35
2023-02-19T17:14:46.470Z,7.45
2023-02-19T17:17:10.817Z,7.55
2023-02-19T17:19:26.588Z,7.63
2023-02-19T17:21:48.408Z,7.68
2023-02-19T17:24:05.079Z,7.73
2023-02-19T17:26:24.576Z,7.77
2023-02-19T17:28:41.546Z,7.83
2023-02-19T17:30:59.800Z,7.90
2023-02-19T17:33:19.927Z,7.97
2023-02-19T17:35:36.451Z,8.02
2023-02-19T17:37:53.262Z,8.08
2023-02-19T17:40:48.349Z,8.15
2023-02-19T17:43:01.379Z,8.21
2023-02-19T17:45:15.327Z,8.26
2023-02-19T17:47:29.045Z,8.31
2023-02-19T17:49:42.629Z,8.37
2023-02-19T17:51:56.224Z,8.43
2023-02-19T17:54:09.418Z,8.47
2023-02-19T17:56:27.358Z,8.52
2023-02-19T17:58:40.555Z,8.58
2023-02-19T18:00:56.993Z,8.63
2023-02-19T18:03:11.697Z,8.70
2023-02-19T18:05:25.789Z,8.79
2023-02-19T18:07:42.537Z,8.87
2023-02-19T18:09:56.428Z,8.95
2023-02-19T18:12:10.274Z,9.05
2023-02-19T18:14:28.640Z,9.15
2023-02-19T18:16:49.761Z,9.22
2023-02-19T18:19:03.831Z,9.29
2023-02-19T18:21:18.739Z,9.32
2023-02-19T18:23:32.495Z,9.36
2023-02-19T18:25:46.510Z,9.39
2023-02-19T18:28:01.151Z,9.42
2023-02-19T18:30:17.907Z,9.46
2023-02-19T18:32:31.770Z,9.52
2023-02-19T18:34:44.898Z,9.58
2023-02-19T18:36:58.199Z,9.62
2023-02-19T18:39:11.559Z,9.66
2023-02-19T18:41:25.711Z,9.68
2023-02-19T18:43:38.863Z,9.71
2023-02-19T18:45:52.143Z,9.76
2023-02-19T18:48:05.324Z,9.83
2023-02-19T18:50:19.453Z,9.89
2023-02-19T18:52:33.249Z,9.94
2023-02-19T18:54:46.399Z,9.96
2023-02-19T18:57:01.879Z,9.98
2023-02-19T18:59:16.810Z,10.00
2023-02-19T19:01:30.029Z,10.01
2023-02-19T19:03:43.390Z,10.01
2023-02-19T19:05:56.640Z,9.99
2023-02-19T19:08:10.138Z,9.97
2023-02-19T19:10:24.038Z,9.96
2023-02-19T19:12:37.478Z,9.97
2023-02-19T19:14:51.056Z,9.97
2023-02-19T19:17:05.332Z,9.98
2023-02-19T19:19:19.294Z,10.02
2023-02-19T19:21:32.636Z,10.06
2023-02-19T19:23:46.762Z,10.08
2023-02-19T19:26:00.420Z,10.11
2023-02-19T19:28:13.502Z,10.15
2023-02-19T19:30:28.163Z,10.18
2023-02-19T19:32:42.064Z,10.19
2023-02-19T19:35:01.445Z,10.20
2023-02-19T19:37:16.697Z,10.20
2023-02-19T19:39:30.442Z,10.19
2023-02-19T19:41:44.053Z,10.19
2023-02-19T19:43:57.134Z,10.19
2023-02-19T19:46:11.238Z,10.18
2023-02-19T19:48:24.342Z,10.21
2023-02-19T19:50:37.430Z,10.24
2023-02-19T19:52:51.087Z,10.27
2023-02-19T19:55:04.431Z,10.31
2023-02-19T19:57:19.535Z,10.35
2023-02-19T19:59:33.211Z,10.37
2023-02-19T20:01:54.304Z,10.40
2023-02-19T20:04:07.910Z,10.42
2023-02-19T20:06:31.034Z,10.39
2023-02-19T20:08:44.151Z,10.36
2023-02-19T20:10:57.800Z,10.32
2023-02-19T20:13:10.998Z,10.28
2023-02-19T20:15:29.140Z,10.23
2023-02-19T20:17:42.437Z,10.12
2023-02-19T20:19:55.568Z,10.05
2023-02-19T20:22:08.838Z,10.04
2023-02-19T20:24:25.269Z,10.07
2023-02-19T20:26:38.568Z,10.09
2023-02-19T20:28:51.658Z,10.10
2023-02-19T20:31:05.924Z,10.02
2023-02-19T20:33:19.974Z,9.90
2023-02-19T20:35:33.722Z,9.86
2023-02-19T20:37:49.349Z,9.85
2023-02-19T20:40:03.787Z,9.85
2023-02-19T20:42:18.134Z,9.85
2023-02-19T20:44:32.301Z,9.84
2023-02-19T20:46:50.763Z,9.86
2023-02-19T20:49:03.928Z,9.86
2023-02-19T20:51:17.477Z,9.86
2023-02-19T20:53:31.158Z,9.83
2023-02-19T20:55:46.298Z,9.76
2023-02-19T20:57:59.999Z,9.73
2023-02-19T21:00:16.817Z,9.66
2023-02-19T21:02:32.049Z,9.60
2023-02-19T21:04:45.570Z,9.57
2023-02-19T21:06:58.718Z,9.53
2023-02-19T21:09:12.009Z,9.49
2023-02-19T21:11:24.917Z,9.47
2023-02-19T21:13:38.481Z,9.48
2023-02-19T21:15:51.807Z,9.50
2023-02-19T21:18:06.179Z,9.51
2023-02-19T21:20:20.836Z,9.52
2023-02-19T21:22:33.951Z,9.47
2023-02-19T21:24:50.639Z,9.40
2023-02-19T21:27:03.570Z,9.37
2023-02-19T21:29:21.802Z,9.33
2023-02-19T21:31:42.708Z,9.33
2023-02-19T21:33:56.831Z,9.29
2023-02-19T21:36:12.002Z,9.21
2023-02-19T21:38:25.909Z,9.14
2023-02-19T21:40:39.500Z,9.11
2023-02-19T21:42:52.532Z,9.09
2023-02-19T21:45:06.412Z,9.07
2023-02-19T21:47:19.559Z,9.07
2023-02-19T21:49:32.708Z,9.06
2023-02-19T21:51:49.075Z,9.03
2023-02-19T21:54:05.913Z,9.02
2023-02-19T21:56:27.332Z,9.02
2023-02-19T21:58:40.497Z,9.02
2023-02-19T22:00:54.927Z,9.05
2023-02-19T22:03:08.586Z,9.11
2023-02-19T22:05:22.535Z,9.21
2023-02-19T22:07:35.844Z,9.28
2023-02-19T22:09:48.984Z,9.32
2023-02-19T22:12:01.963Z,9.35
2023-02-19T22:14:15.222Z,9.37
2023-02-19T22:16:29.879Z,9.38
2023-02-19T22:18:49.079Z,9.37
2023-02-19T22:21:02.124Z,9.33
2023-02-19T22:23:15.413Z,9.30
2023-02-19T22:25:28.957Z,9.28
2023-02-19T22:27:42.313Z,9.25
2023-02-19T22:29:55.673Z,9.22
2023-02-19T22:32:10.805Z,9.22
2023-02-19T22:34:25.436Z,9.22
2023-02-19T22:36:40.320Z,9.20
2023-02-19T22:38:54.102Z,9.18
2023-02-19T22:41:07.050Z,9.13
2023-02-19T22:43:23.003Z,9.07
2023-02-19T22:45:36.320Z,9.03
2023-02-19T22:47:50.450Z,9.02
2023-02-19T22:50:05.053Z,9.02
2023-02-19T22:52:18.794Z,9.01
2023-02-19T22:54:32.683Z,9.03
2023-02-19T22:56:45.858Z,9.01
2023-02-19T22:58:59.854Z,8.99
2023-02-19T23:01:14.086Z,8.94
2023-02-19T23:03:28.155Z,8.92
2023-02-19T23:05:41.279Z,8.90
2023-02-19T23:07:54.291Z,8.87
2023-02-19T23:10:07.549Z,8.83
2023-02-19T23:12:21.232Z,8.78
2023-02-19T23:14:34.140Z,8.75
2023-02-19T23:16:47.145Z,8.76
2023-02-19T23:19:00.720Z,8.77
2023-02-19T23:21:14.079Z,8.75
2023-02-19T23:23:27.044Z,8.73
2023-02-19T23:25:39.964Z,8.71
2023-02-19T23:27:53.894Z,8.72
2023-02-19T23:30:08.045Z,8.70
2023-02-19T23:32:22.232Z,8.68
2023-02-19T23:34:35.966Z,8.67
2023-02-19T23:36:50.479Z,8.68
2023-02-19T23:39:03.500Z,8.67
2023-02-19T23:41:18.806Z,8.68
2023-02-19T23:43:32.818Z,8.69
2023-02-19T23:45:46.289Z,8.69
2023-02-19T23:47:59.725Z,8.68
2023-02-19T23:50:14.625Z,8.66
2023-02-19T23:52:28.094Z,8.65
2023-02-19T23:54:41.714Z,8.66
2023-02-19T23:56:55.253Z,8.65
2023-02-19T23:59:08.333Z,8.64
